Buoy 21955

sailwx.info

Track history (hours):
 
Tides and Currents Weather Stations Pressure Air Temp Water Temp Dewpoint Dewpoint Depression Visibility Wind Speed Wind Dir Waves Ship Positions

Drifting buoy 21955

Last reported at 2018-Feb-20 20:00 UTC. Time now 2018-Feb-20 21:09 UTC.
Position N 55°22' W 140°20'.

Barometer 1032.5 mb
Water temperature 5.7 ° C

Date/timePositionNaut miles runAvg speedWind from/ knotsBaromVisibWave heightAir tempDewpointWater temp
2018-Feb-20 20:00N 55°22' W 140°20'0 0.0 1032.5 5.7
2018-Feb-20 19:00N 55°22' W 140°20'1 0.7 1031.7 5.6
2018-Feb-20 18:00N 55°22' W 140°21'1 1.2 1030.9 5.6
2018-Feb-20 17:00N 55°22' W 140°23'0 0.3 1031.1 5.6
2018-Feb-20 16:00N 55°22' W 140°23'0 0.3 1030.9 5.6
2018-Feb-20 15:00N 55°22' W 140°24'1 0.3 1030.5 5.7
2018-Feb-20 13:00N 55°22' W 140°25'1 0.9 1029.9 5.7
2018-Feb-20 12:00N 55°21' W 140°26'0 0.0 1030.1 5.6
2018-Feb-20 11:00N 55°21' W 140°26'1 0.3 1029.6 5.6
2018-Feb-20 08:00N 55°22' W 140°25'0 0.0 1028.5 5.7
2018-Feb-20 07:00N 55°22' W 140°25'1 1.5 1028.2 5.7
2018-Feb-20 06:00N 55°22' W 140°27'1 0.6 1028.1 5.7
2018-Feb-20 05:00N 55°22' W 140°27'1 1.2 1027.2 5.7
2018-Feb-20 04:00N 55°22' W 140°29'0 0.3 1026.6 5.7
2018-Feb-20 03:00N 55°22' W 140°29'0 0.3 1026.1 5.7
2018-Feb-20 02:00N 55°22' W 140°30'0 0.0 1025.6 5.6
2018-Feb-20 01:00N 55°22' W 140°30'1 0.6 1025.3 5.6
2018-Feb-20 00:00N 55°22' W 140°30'0 0.0 1025.2 5.6
2018-Feb-19 23:00N 55°22' W 140°30'0 0.0 1025.4 5.6
2018-Feb-19 22:00N 55°22' W 140°30'1 0.6 1025.0 5.6
2018-Feb-19 21:00N 55°22' W 140°30'0 0.0 1024.7 5.6
2018-Feb-19 20:00N 55°22' W 140°30'1 0.6 1024.6 5.6
2018-Feb-19 19:00N 55°23' W 140°30'1 0.9 1024.4 5.6
2018-Feb-19 18:00N 55°23' W 140°31'1 0.9 1024.2 5.6
2018-Feb-19 17:00N 55°24' W 140°32'2 2.1 1024.3 5.6
2018-Feb-19 16:00N 55°25' W 140°36'1 0.6 1024.4 5.6
2018-Feb-19 15:00N 55°25' W 140°36'1 1.4 1024.9 5.6
2018-Feb-19 14:00N 55°25' W 140°38'0 0.3 1025.6 5.6
2018-Feb-19 13:00N 55°25' W 140°38'2 2.0 1026.5 5.6
2018-Feb-19 12:00N 55°25' W 140°41'0 0.0 1027.9 5.6
2018-Feb-19 11:00N 55°25' W 140°41'2 0.8 1029.0 5.6
2018-Feb-19 08:00N 55°25' W 140°46'1 0.6 1031.4 5.6
2018-Feb-19 06:00N 55°25' W 140°47'1 0.7 1032.7 5.6
2018-Feb-19 05:00N 55°25' W 140°49'1 1.2 1033.6 5.6
2018-Feb-19 04:00N 55°26' W 140°49'1 1.5 1034.2 5.6
2018-Feb-19 03:00N 55°27' W 140°52'1 0.7 1034.7 5.6
2018-Feb-19 02:00N 55°27' W 140°53'1 1.0 1035.0 5.6
2018-Feb-19 01:00N 55°27' W 140°55'1 0.9 1035.4 5.6
2018-Feb-19 00:00N 55°28' W 140°56'1 0.6 1035.5 5.6
2018-Feb-18 23:00N 55°27' W 140°56'1 0.9 1035.9 5.6
2018-Feb-18 22:00N 55°28' W 140°57'1 1.2 1036.4 5.6
2018-Feb-18 21:00N 55°29' W 140°58'0 0.3 1036.8 5.6
2018-Feb-18 20:00N 55°29' W 140°58'1 1.4 1037.0 5.6
2018-Feb-18 19:00N 55°30' W 140°59'0 0.0 1037.3 5.6
2018-Feb-18 18:00N 55°30' W 140°59'1 0.9 1037.6 5.6
2018-Feb-18 17:00N 55°31' W 141°01'1 1.0 1037.5 5.6
2018-Feb-18 16:00N 55°31' W 141°02'0 0.0 1037.3 5.6
2018-Feb-18 15:00N 55°31' W 141°02'1 0.7 1037.2 5.6
2018-Feb-18 14:00N 55°31' W 141°04'0 0.0 1037.2 5.6
2018-Feb-18 13:00N 55°31' W 141°04'0 0.0 1037.4 5.6
2018-Feb-18 12:00N 55°31' W 141°04'0 0.0 1037.5 5.6
2018-Feb-18 11:00N 55°31' W 141°04'0 0.0 1037.4 5.6
2018-Feb-18 08:00N 55°31' W 141°04'1 1.2 1037.3 5.6
2018-Feb-18 07:00N 55°32' W 141°04'0 0.0 1037.3 5.6
2018-Feb-18 06:00N 55°32' W 141°04'1 0.7 1037.0 5.6
2018-Feb-18 05:00N 55°32' W 141°04'1 0.6 1036.7 5.6
2018-Feb-18 04:00N 55°33' W 141°04'1 0.6 1036.4 5.6
2018-Feb-18 03:00N 55°34' W 141°04'1 0.7 1035.7 5.6
2018-Feb-18 02:00N 55°34' W 141°05'0 0.0 1035.3 5.6
2018-Feb-18 01:00N 55°34' W 141°05'1 0.7 1035.5 5.6
2018-Feb-18 00:00N 55°34' W 141°06'0 0.3 1035.2 5.6
2018-Feb-17 23:00N 55°34' W 141°07'1 0.9 1035.1 5.6
2018-Feb-17 22:00N 55°35' W 141°05'1 1.2 1034.8 5.6
2018-Feb-17 21:00N 55°36' W 141°05'0 0.0 1034.7 5.6
2018-Feb-17 20:00N 55°36' W 141°05'1 0.6 1034.5 5.6
2018-Feb-17 19:00N 55°37' W 141°05'2 1.8 1034.4 5.6
2018-Feb-17 18:00N 55°38' W 141°05'1 0.6 1033.5 5.6
2018-Feb-17 17:00N 55°38' W 141°05'0 0.3 1032.9 5.6
2018-Feb-17 16:00N 55°38' W 141°04'2 2.5 1032.2 5.6
2018-Feb-17 15:00N 55°40' W 141°03'0 0.0 1031.3 5.6
2018-Feb-17 14:00N 55°40' W 141°03'2 1.9 1030.9 5.6
2018-Feb-17 13:00N 55°42' W 141°02'2 1.8 1030.2 5.6
2018-Feb-17 12:00N 55°41' W 141°04'0 0.0 1029.2 5.6
2018-Feb-17 11:00N 55°41' W 141°04'6 1.4 1028.0 5.6
2018-Feb-17 07:00N 55°46' W 140°59'1 0.7 1021.4 5.6
2018-Feb-17 06:00N 55°46' W 140°58'1 1.4 1019.5 5.6
2018-Feb-17 05:00N 55°46' W 140°56'1 1.2 1017.6 5.6
2018-Feb-17 04:00N 55°47' W 140°54'1 1.5 1016.3 5.6
2018-Feb-17 03:00N 55°47' W 140°52'1 0.7 1016.0 5.7
2018-Feb-17 02:00N 55°47' W 140°50'1 1.5 1015.3 5.7
2018-Feb-17 01:00N 55°47' W 140°48'1 1.3 1015.2 5.7
2018-Feb-17 00:00N 55°47' W 140°46'1 1.5 1015.8 5.7
2018-Feb-16 23:00N 55°46' W 140°43'1 0.9 1017.4 5.7
2018-Feb-16 22:00N 55°46' W 140°42'0 0.0 1018.7 5.7
2018-Feb-16 21:00N 55°46' W 140°42'0 0.3 1021.1 5.7
2018-Feb-16 20:00N 55°46' W 140°41'1 0.6 1022.5 5.7
2018-Feb-16 19:00N 55°45' W 140°41'1 0.6 1023.4 5.7
2018-Feb-16 18:00N 55°44' W 140°41'1 0.6 1024.4 5.7
2018-Feb-16 17:00N 55°44' W 140°41'0 0.0 1024.5 5.6
2018-Feb-16 16:00N 55°44' W 140°41'0 0.3 1024.1 5.6
2018-Feb-16 15:00N 55°44' W 140°41'1 1.2 1024.9 5.7
2018-Feb-16 14:00N 55°43' W 140°39'0 0.3 1025.4 5.7
2018-Feb-16 13:00N 55°43' W 140°38'0 0.0 1025.6 5.7
2018-Feb-16 12:00N 55°43' W 140°38'2 1.8 1025.8 5.7
2018-Feb-16 11:00N 55°45' W 140°38'0 0.0 1026.0 5.7
2018-Feb-16 07:00N 55°45' W 140°38'1 0.7 1024.9 5.7
2018-Feb-16 06:00N 55°46' W 140°38'0 0.3 1024.1 5.7
2018-Feb-16 05:00N 55°46' W 140°38'1 0.7 1024.0 5.7
2018-Feb-16 04:00N 55°46' W 140°39'0 0.3 1023.4 5.7
2018-Feb-16 03:00N 55°46' W 140°38'0 0.3 1022.8 5.7
2018-Feb-16 02:00N 55°46' W 140°39'0 0.3 1022.4 5.7
2018-Feb-16 01:00N 55°46' W 140°38'1 0.7 1022.4 5.6
2018-Feb-16 00:00N 55°46' W 140°38'0 0.3 1021.9 5.6
2018-Feb-15 23:00N 55°46' W 140°38'0 0.3 1021.8 5.6
2018-Feb-15 22:00N 55°46' W 140°38'0 0.0 1022.2 5.6
2018-Feb-15 21:00N 55°46' W 140°38'1 0.7 1022.2 5.6
2018-Feb-15 20:00N 55°47' W 140°38'1 0.7 1022.2 5.6
2018-Feb-15 19:00N 55°47' W 140°38'0 0.3 1022.5 5.6
2018-Feb-15 18:00N 55°47' W 140°38'1 0.9 1022.7 5.6
2018-Feb-15 17:00N 55°48' W 140°40'0 0.3 1022.9 5.6
2018-Feb-15 16:00N 55°48' W 140°39'1 0.7 1023.1 5.6
2018-Feb-15 15:00N 55°49' W 140°40'0 0.0 1023.2 5.6
2018-Feb-15 14:00N 55°49' W 140°40'1 0.3 1024.1 5.6
2018-Feb-15 12:00N 55°49' W 140°41'1 0.6 1024.7 5.6
2018-Feb-15 11:00N 55°49' W 140°41'0 0.1 1025.2 5.6
2018-Feb-15 08:00N 55°49' W 140°40'0 0.2 1026.4 5.6
2018-Feb-15 06:00N 55°49' W 140°41'1 0.6 1026.9 5.6
2018-Feb-15 05:00N 55°50' W 140°41'1 0.7 1027.5 5.6
2018-Feb-15 04:00N 55°50' W 140°41'0 0.3 1027.9 5.6
2018-Feb-15 03:00N 55°50' W 140°42'1 0.7 1028.1 5.6
2018-Feb-15 02:00N 55°50' W 140°43'0 0.3 1028.2 5.7
2018-Feb-15 01:00N 55°50' W 140°44'0 0.3 1028.3 5.8
2018-Feb-15 00:00N 55°50' W 140°44'0 0.0 1028.2 5.8
2018-Feb-14 23:00N 55°50' W 140°44'0 0.3 1028.5 5.7
2018-Feb-14 22:00N 55°50' W 140°45'0 0.3 1028.5 5.7
2018-Feb-14 21:00N 55°50' W 140°44'1 0.7 1028.4 5.7
2018-Feb-14 20:00N 55°51' W 140°44'0 0.0 1028.5 5.7
2018-Feb-14 19:00N 55°51' W 140°44'1 1.2 1028.4 5.7
2018-Feb-14 18:00N 55°52' W 140°46'1 1.2 1028.1 5.7
2018-Feb-14 17:00N 55°52' W 140°47'1 1.0 1028.2 5.7
2018-Feb-14 16:00N 55°52' W 140°46'1 0.7 1027.4 5.7
2018-Feb-14 15:00N 55°53' W 140°46'0 0.3 1027.1 5.7
2018-Feb-14 14:00N 55°53' W 140°47'1 0.9 1026.7 5.7
2018-Feb-14 13:00N 55°53' W 140°48'1 0.6 1026.5 5.7
2018-Feb-14 12:00N 55°54' W 140°48'2 1.6 1026.0 5.7
2018-Feb-14 11:00N 55°55' W 140°50'0 0.0 1025.6 5.7
2018-Feb-14 08:00N 55°55' W 140°50'1 0.7 1023.7 5.8
2018-Feb-14 06:00N 55°56' W 140°51'1 0.7 1021.9 5.9
2018-Feb-14 05:00N 55°57' W 140°52'1 0.6 1021.2 6.0
2018-Feb-14 04:00N 55°58' W 140°52'1 0.6 1020.1 6.0
2018-Feb-14 03:00N 55°58' W 140°52'1 0.7 1019.3 5.9
2018-Feb-14 02:00N 55°59' W 140°52'2 1.8 1018.5 6.0
2018-Feb-14 01:00N 55°59' W 140°55'1 0.9 1017.6 6.0
2018-Feb-14 00:00N 56°00' W 140°54'2 1.6 1016.7 6.0
2018-Feb-13 23:00N 56°01' W 140°56'1 0.7 1016.0 6.0
2018-Feb-13 22:00N 56°02' W 140°56'1 0.9 1014.9 6.0
2018-Feb-13 21:00N 56°02' W 140°58'1 0.7 1013.8 6.0
2018-Feb-13 20:00N 56°03' W 140°58'1 1.2 1012.6 6.0
2018-Feb-13 19:00N 56°04' W 141°00'1 0.6 1011.3 5.9
2018-Feb-13 18:00N 56°03' W 141°00'1 1.2 1010.6 5.9
2018-Feb-13 17:00N 56°04' W 141°01'1 1.3 1009.5 5.8
2018-Feb-13 16:00N 56°04' W 141°03'2 1.6 1009.1 5.8
2018-Feb-13 15:00N 56°05' W 141°05'1 0.9 1008.7 5.8
2018-Feb-13 14:00N 56°05' W 141°06'0 0.0 1008.7 5.8
2018-Feb-13 13:00N 56°05' W 141°06'4 4.2 1008.7 5.9
2018-Feb-13 12:00N 56°06' W 141°13'0 0.0 1008.9 6.0
2018-Feb-13 08:00N 56°06' W 141°13'2 1.7 1010.9 5.9
2018-Feb-13 07:00N 56°06' W 141°16'1 0.7 1011.8 6.0
2018-Feb-13 06:00N 56°06' W 141°17'1 0.7 1012.6 6.0
2018-Feb-13 05:00N 56°05' W 141°18'1 1.3 1013.5 5.9
2018-Feb-13 04:00N 56°05' W 141°20'1 0.9 1014.4 5.9
2018-Feb-13 03:00N 56°05' W 141°22'1 0.9 1014.4 5.8
2018-Feb-13 02:00N 56°04' W 141°23'1 0.9 1015.1 5.8
2018-Feb-13 01:00N 56°04' W 141°24'0 0.3 1015.8 5.8
2018-Feb-13 00:00N 56°04' W 141°25'1 0.3 1016.6 5.8
2018-Feb-12 22:00N 56°03' W 141°25'1 0.7 1017.9 5.8
2018-Feb-12 21:00N 56°03' W 141°26'0 0.3 1018.3 5.7
2018-Feb-12 20:00N 56°03' W 141°26'2 1.7 1018.4 5.7
2018-Feb-12 19:00N 56°03' W 141°29'0 0.3 1018.5 5.7
2018-Feb-12 18:00N 56°03' W 141°29'1 1.2 1019.0 5.7
2018-Feb-12 17:00N 56°02' W 141°31'1 1.2 1019.3 5.7
2018-Feb-12 16:00N 56°01' W 141°32'1 0.9 1019.8 5.7
2018-Feb-12 15:00N 56°01' W 141°33'2 1.8 1021.0 5.7
2018-Feb-12 14:00N 55°59' W 141°33'2 2.4 1022.6 5.7
2018-Feb-12 13:00N 55°56' W 141°34'2 2.4 1023.9 5.7
2018-Feb-12 12:00N 55°59' W 141°33'2 2.4 1025.4 5.8
2018-Feb-12 11:00N 55°56' W 141°34'1 0.2 1026.1 5.8
2018-Feb-12 07:00N 55°57' W 141°33'0 0.3 1028.5 5.8
2018-Feb-12 06:00N 55°57' W 141°32'1 0.7 1028.7 5.8
2018-Feb-12 05:00N 55°57' W 141°34'1 0.7 1028.8 5.8
2018-Feb-12 04:00N 55°58' W 141°33'1 0.7 1029.0 5.8
2018-Feb-12 03:00N 55°58' W 141°34'1 1.0 1029.4 5.8
2018-Feb-12 02:00N 55°58' W 141°36'0 0.3 1029.1 5.8
2018-Feb-12 01:00N 55°58' W 141°37'0 0.3 1029.6 5.8
2018-Feb-12 00:00N 55°58' W 141°37'1 0.7 1028.8 5.8
2018-Feb-11 23:00N 55°57' W 141°38'1 1.2 1028.5 5.8
2018-Feb-11 22:00N 55°58' W 141°37'1 0.6 1027.8 5.8
2018-Feb-11 21:00N 55°58' W 141°37'1 0.7 1027.9 5.8
2018-Feb-11 20:00N 55°58' W 141°37'0 0.0 1027.5 5.8
2018-Feb-11 19:00N 55°58' W 141°37'1 0.6 1026.6 5.8
2018-Feb-11 18:00N 55°59' W 141°37'1 1.2 1025.9 5.8
2018-Feb-11 17:00N 56°00' W 141°37'1 0.7 1025.0 5.8
2018-Feb-11 16:00N 56°00' W 141°38'0 0.3 1024.1 5.8
2018-Feb-11 15:00N 56°00' W 141°37'0 0.0 1023.7 5.8
2018-Feb-11 14:00N 56°00' W 141°37'1 0.6 1023.3 5.8
2018-Feb-11 13:00N 55°59' W 141°37'0 0.0 1023.1 5.8
2018-Feb-11 12:00N 55°59' W 141°37'0 0.0 1022.9 5.8
2018-Feb-11 11:00N 55°59' W 141°37'4 0.9 1022.1 5.8
2018-Feb-11 07:00N 55°57' W 141°32'1 1.0 1018.9 5.8
2018-Feb-11 06:00N 55°57' W 141°31'1 0.7 1018.4 5.8
2018-Feb-11 05:00N 55°56' W 141°31'1 0.7 1017.8 5.8
2018-Feb-11 04:00N 55°56' W 141°30'1 0.6 1017.3 5.8
2018-Feb-11 03:00N 55°56' W 141°30'2 1.6 1016.6 5.8
2018-Feb-11 02:00N 55°55' W 141°28'0 0.0 1016.1 5.8
2018-Feb-11 01:00N 55°55' W 141°28'2 1.8 1015.6 5.8
2018-Feb-11 00:00N 55°53' W 141°26'2 1.1 1015.6 5.8
2018-Feb-10 22:00N 55°53' W 141°22'2 2.1 1017.4 5.8
2018-Feb-10 21:00N 55°52' W 141°19'0 0.0 1018.0 5.8
2018-Feb-10 20:00N 55°52' W 141°19'   1018.9 5.8
Track history (hours):
 
Tides and Currents Weather Stations Pressure Air Temp Water Temp Dewpoint Dewpoint Depression Visibility Wind Speed Wind Dir Waves Ship Positions

Drifting buoy 21955

Last reported at 2018-Feb-20 20:00 UTC. Time now 2018-Feb-20 21:09 UTC.
Position N 55°22' W 140°20'.

Barometer 1032.5 mb
Water temperature 5.7 ° C

Date/timePositionNaut miles runAvg speedWind from/ knotsBaromVisibWave heightAir tempDewpointWater temp
2018-Feb-20 20:00N 55°22' W 140°20'0 0.0 1032.5 5.7
2018-Feb-20 19:00N 55°22' W 140°20'1 0.7 1031.7 5.6
2018-Feb-20 18:00N 55°22' W 140°21'1 1.2 1030.9 5.6
2018-Feb-20 17:00N 55°22' W 140°23'0 0.3 1031.1 5.6
2018-Feb-20 16:00N 55°22' W 140°23'0 0.3 1030.9 5.6
2018-Feb-20 15:00N 55°22' W 140°24'1 0.3 1030.5 5.7
2018-Feb-20 13:00N 55°22' W 140°25'1 0.9 1029.9 5.7
2018-Feb-20 12:00N 55°21' W 140°26'0 0.0 1030.1 5.6
2018-Feb-20 11:00N 55°21' W 140°26'1 0.3 1029.6 5.6
2018-Feb-20 08:00N 55°22' W 140°25'0 0.0 1028.5 5.7
2018-Feb-20 07:00N 55°22' W 140°25'1 1.5 1028.2 5.7
2018-Feb-20 06:00N 55°22' W 140°27'1 0.6 1028.1 5.7
2018-Feb-20 05:00N 55°22' W 140°27'1 1.2 1027.2 5.7
2018-Feb-20 04:00N 55°22' W 140°29'0 0.3 1026.6 5.7
2018-Feb-20 03:00N 55°22' W 140°29'0 0.3 1026.1 5.7
2018-Feb-20 02:00N 55°22' W 140°30'0 0.0 1025.6 5.6
2018-Feb-20 01:00N 55°22' W 140°30'1 0.6 1025.3 5.6
2018-Feb-20 00:00N 55°22' W 140°30'0 0.0 1025.2 5.6
2018-Feb-19 23:00N 55°22' W 140°30'0 0.0 1025.4 5.6
2018-Feb-19 22:00N 55°22' W 140°30'1 0.6 1025.0 5.6
2018-Feb-19 21:00N 55°22' W 140°30'0 0.0 1024.7 5.6
2018-Feb-19 20:00N 55°22' W 140°30'1 0.6 1024.6 5.6
2018-Feb-19 19:00N 55°23' W 140°30'1 0.9 1024.4 5.6
2018-Feb-19 18:00N 55°23' W 140°31'1 0.9 1024.2 5.6
2018-Feb-19 17:00N 55°24' W 140°32'2 2.1 1024.3 5.6
2018-Feb-19 16:00N 55°25' W 140°36'1 0.6 1024.4 5.6
2018-Feb-19 15:00N 55°25' W 140°36'1 1.4 1024.9 5.6
2018-Feb-19 14:00N 55°25' W 140°38'0 0.3 1025.6 5.6
2018-Feb-19 13:00N 55°25' W 140°38'2 2.0 1026.5 5.6
2018-Feb-19 12:00N 55°25' W 140°41'0 0.0 1027.9 5.6
2018-Feb-19 11:00N 55°25' W 140°41'2 0.8 1029.0 5.6
2018-Feb-19 08:00N 55°25' W 140°46'1 0.6 1031.4 5.6
2018-Feb-19 06:00N 55°25' W 140°47'1 0.7 1032.7 5.6
2018-Feb-19 05:00N 55°25' W 140°49'1 1.2 1033.6 5.6
2018-Feb-19 04:00N 55°26' W 140°49'1 1.5 1034.2 5.6
2018-Feb-19 03:00N 55°27' W 140°52'1 0.7 1034.7 5.6
2018-Feb-19 02:00N 55°27' W 140°53'1 1.0 1035.0 5.6
2018-Feb-19 01:00N 55°27' W 140°55'1 0.9 1035.4 5.6
2018-Feb-19 00:00N 55°28' W 140°56'1 0.6 1035.5 5.6
2018-Feb-18 23:00N 55°27' W 140°56'1 0.9 1035.9 5.6
2018-Feb-18 22:00N 55°28' W 140°57'1 1.2 1036.4 5.6
2018-Feb-18 21:00N 55°29' W 140°58'0 0.3 1036.8 5.6
2018-Feb-18 20:00N 55°29' W 140°58'1 1.4 1037.0 5.6
2018-Feb-18 19:00N 55°30' W 140°59'0 0.0 1037.3 5.6
2018-Feb-18 18:00N 55°30' W 140°59'1 0.9 1037.6 5.6
2018-Feb-18 17:00N 55°31' W 141°01'1 1.0 1037.5 5.6
2018-Feb-18 16:00N 55°31' W 141°02'0 0.0 1037.3 5.6
2018-Feb-18 15:00N 55°31' W 141°02'1 0.7 1037.2 5.6
2018-Feb-18 14:00N 55°31' W 141°04'0 0.0 1037.2 5.6
2018-Feb-18 13:00N 55°31' W 141°04'0 0.0 1037.4 5.6
2018-Feb-18 12:00N 55°31' W 141°04'0 0.0 1037.5 5.6
2018-Feb-18 11:00N 55°31' W 141°04'0 0.0 1037.4 5.6
2018-Feb-18 08:00N 55°31' W 141°04'1 1.2 1037.3 5.6
2018-Feb-18 07:00N 55°32' W 141°04'0 0.0 1037.3 5.6
2018-Feb-18 06:00N 55°32' W 141°04'1 0.7 1037.0 5.6
2018-Feb-18 05:00N 55°32' W 141°04'1 0.6 1036.7 5.6
2018-Feb-18 04:00N 55°33' W 141°04'1 0.6 1036.4 5.6
2018-Feb-18 03:00N 55°34' W 141°04'1 0.7 1035.7 5.6
2018-Feb-18 02:00N 55°34' W 141°05'0 0.0 1035.3 5.6
2018-Feb-18 01:00N 55°34' W 141°05'1 0.7 1035.5 5.6
2018-Feb-18 00:00N 55°34' W 141°06'0 0.3 1035.2 5.6
2018-Feb-17 23:00N 55°34' W 141°07'1 0.9 1035.1 5.6
2018-Feb-17 22:00N 55°35' W 141°05'1 1.2 1034.8 5.6
2018-Feb-17 21:00N 55°36' W 141°05'0 0.0 1034.7 5.6
2018-Feb-17 20:00N 55°36' W 141°05'1 0.6 1034.5 5.6
2018-Feb-17 19:00N 55°37' W 141°05'2 1.8 1034.4 5.6
2018-Feb-17 18:00N 55°38' W 141°05'1 0.6 1033.5 5.6
2018-Feb-17 17:00N 55°38' W 141°05'0 0.3 1032.9 5.6
2018-Feb-17 16:00N 55°38' W 141°04'2 2.5 1032.2 5.6
2018-Feb-17 15:00N 55°40' W 141°03'0 0.0 1031.3 5.6
2018-Feb-17 14:00N 55°40' W 141°03'2 1.9 1030.9 5.6
2018-Feb-17 13:00N 55°42' W 141°02'2 1.8 1030.2 5.6
2018-Feb-17 12:00N 55°41' W 141°04'0 0.0 1029.2 5.6
2018-Feb-17 11:00N 55°41' W 141°04'6 1.4 1028.0 5.6
2018-Feb-17 07:00N 55°46' W 140°59'1 0.7 1021.4 5.6
2018-Feb-17 06:00N 55°46' W 140°58'1 1.4 1019.5 5.6
2018-Feb-17 05:00N 55°46' W 140°56'1 1.2 1017.6 5.6
2018-Feb-17 04:00N 55°47' W 140°54'1 1.5 1016.3 5.6
2018-Feb-17 03:00N 55°47' W 140°52'1 0.7 1016.0 5.7
2018-Feb-17 02:00N 55°47' W 140°50'1 1.5 1015.3 5.7
2018-Feb-17 01:00N 55°47' W 140°48'1 1.3 1015.2 5.7
2018-Feb-17 00:00N 55°47' W 140°46'1 1.5 1015.8 5.7
2018-Feb-16 23:00N 55°46' W 140°43'1 0.9 1017.4 5.7
2018-Feb-16 22:00N 55°46' W 140°42'0 0.0 1018.7 5.7
2018-Feb-16 21:00N 55°46' W 140°42'0 0.3 1021.1 5.7
2018-Feb-16 20:00N 55°46' W 140°41'1 0.6 1022.5 5.7
2018-Feb-16 19:00N 55°45' W 140°41'1 0.6 1023.4 5.7
2018-Feb-16 18:00N 55°44' W 140°41'1 0.6 1024.4 5.7
2018-Feb-16 17:00N 55°44' W 140°41'0 0.0 1024.5 5.6
2018-Feb-16 16:00N 55°44' W 140°41'0 0.3 1024.1 5.6
2018-Feb-16 15:00N 55°44' W 140°41'1 1.2 1024.9 5.7
2018-Feb-16 14:00N 55°43' W 140°39'0 0.3 1025.4 5.7
2018-Feb-16 13:00N 55°43' W 140°38'0 0.0 1025.6 5.7
2018-Feb-16 12:00N 55°43' W 140°38'2 1.8 1025.8 5.7
2018-Feb-16 11:00N 55°45' W 140°38'0 0.0 1026.0 5.7
2018-Feb-16 07:00N 55°45' W 140°38'1 0.7 1024.9 5.7
2018-Feb-16 06:00N 55°46' W 140°38'0 0.3 1024.1 5.7
2018-Feb-16 05:00N 55°46' W 140°38'1 0.7 1024.0 5.7
2018-Feb-16 04:00N 55°46' W 140°39'0 0.3 1023.4 5.7
2018-Feb-16 03:00N 55°46' W 140°38'0 0.3 1022.8 5.7
2018-Feb-16 02:00N 55°46' W 140°39'0 0.3 1022.4 5.7
2018-Feb-16 01:00N 55°46' W 140°38'1 0.7 1022.4 5.6
2018-Feb-16 00:00N 55°46' W 140°38'0 0.3 1021.9 5.6
2018-Feb-15 23:00N 55°46' W 140°38'0 0.3 1021.8 5.6
2018-Feb-15 22:00N 55°46' W 140°38'0 0.0 1022.2 5.6
2018-Feb-15 21:00N 55°46' W 140°38'1 0.7 1022.2 5.6
2018-Feb-15 20:00N 55°47' W 140°38'1 0.7 1022.2 5.6
2018-Feb-15 19:00N 55°47' W 140°38'0 0.3 1022.5 5.6
2018-Feb-15 18:00N 55°47' W 140°38'1 0.9 1022.7 5.6
2018-Feb-15 17:00N 55°48' W 140°40'0 0.3 1022.9 5.6
2018-Feb-15 16:00N 55°48' W 140°39'1 0.7 1023.1 5.6
2018-Feb-15 15:00N 55°49' W 140°40'0 0.0 1023.2 5.6
2018-Feb-15 14:00N 55°49' W 140°40'1 0.3 1024.1 5.6
2018-Feb-15 12:00N 55°49' W 140°41'1 0.6 1024.7 5.6
2018-Feb-15 11:00N 55°49' W 140°41'0 0.1 1025.2 5.6
2018-Feb-15 08:00N 55°49' W 140°40'0 0.2 1026.4 5.6
2018-Feb-15 06:00N 55°49' W 140°41'1 0.6 1026.9 5.6
2018-Feb-15 05:00N 55°50' W 140°41'1 0.7 1027.5 5.6
2018-Feb-15 04:00N 55°50' W 140°41'0 0.3 1027.9 5.6
2018-Feb-15 03:00N 55°50' W 140°42'1 0.7 1028.1 5.6
2018-Feb-15 02:00N 55°50' W 140°43'0 0.3 1028.2 5.7
2018-Feb-15 01:00N 55°50' W 140°44'0 0.3 1028.3 5.8
2018-Feb-15 00:00N 55°50' W 140°44'0 0.0 1028.2 5.8
2018-Feb-14 23:00N 55°50' W 140°44'0 0.3 1028.5 5.7
2018-Feb-14 22:00N 55°50' W 140°45'0 0.3 1028.5 5.7
2018-Feb-14 21:00N 55°50' W 140°44'1 0.7 1028.4 5.7
2018-Feb-14 20:00N 55°51' W 140°44'0 0.0 1028.5 5.7
2018-Feb-14 19:00N 55°51' W 140°44'1 1.2 1028.4 5.7
2018-Feb-14 18:00N 55°52' W 140°46'1 1.2 1028.1 5.7
2018-Feb-14 17:00N 55°52' W 140°47'1 1.0 1028.2 5.7
2018-Feb-14 16:00N 55°52' W 140°46'1 0.7 1027.4 5.7
2018-Feb-14 15:00N 55°53' W 140°46'0 0.3 1027.1 5.7
2018-Feb-14 14:00N 55°53' W 140°47'1 0.9 1026.7 5.7
2018-Feb-14 13:00N 55°53' W 140°48'1 0.6 1026.5 5.7
2018-Feb-14 12:00N 55°54' W 140°48'2 1.6 1026.0 5.7
2018-Feb-14 11:00N 55°55' W 140°50'0 0.0 1025.6 5.7
2018-Feb-14 08:00N 55°55' W 140°50'1 0.7 1023.7 5.8
2018-Feb-14 06:00N 55°56' W 140°51'1 0.7 1021.9 5.9
2018-Feb-14 05:00N 55°57' W 140°52'1 0.6 1021.2 6.0
2018-Feb-14 04:00N 55°58' W 140°52'1 0.6 1020.1 6.0
2018-Feb-14 03:00N 55°58' W 140°52'1 0.7 1019.3 5.9
2018-Feb-14 02:00N 55°59' W 140°52'2 1.8 1018.5 6.0
2018-Feb-14 01:00N 55°59' W 140°55'1 0.9 1017.6 6.0
2018-Feb-14 00:00N 56°00' W 140°54'2 1.6 1016.7 6.0
2018-Feb-13 23:00N 56°01' W 140°56'1 0.7 1016.0 6.0
2018-Feb-13 22:00N 56°02' W 140°56'1 0.9 1014.9 6.0
2018-Feb-13 21:00N 56°02' W 140°58'1 0.7 1013.8 6.0
2018-Feb-13 20:00N 56°03' W 140°58'1 1.2 1012.6 6.0
2018-Feb-13 19:00N 56°04' W 141°00'1 0.6 1011.3 5.9
2018-Feb-13 18:00N 56°03' W 141°00'1 1.2 1010.6 5.9
2018-Feb-13 17:00N 56°04' W 141°01'1 1.3 1009.5 5.8
2018-Feb-13 16:00N 56°04' W 141°03'2 1.6 1009.1 5.8
2018-Feb-13 15:00N 56°05' W 141°05'1 0.9 1008.7 5.8
2018-Feb-13 14:00N 56°05' W 141°06'0 0.0 1008.7 5.8
2018-Feb-13 13:00N 56°05' W 141°06'4 4.2 1008.7 5.9
2018-Feb-13 12:00N 56°06' W 141°13'0 0.0 1008.9 6.0
2018-Feb-13 08:00N 56°06' W 141°13'2 1.7 1010.9 5.9
2018-Feb-13 07:00N 56°06' W 141°16'1 0.7 1011.8 6.0
2018-Feb-13 06:00N 56°06' W 141°17'1 0.7 1012.6 6.0
2018-Feb-13 05:00N 56°05' W 141°18'1 1.3 1013.5 5.9
2018-Feb-13 04:00N 56°05' W 141°20'1 0.9 1014.4 5.9
2018-Feb-13 03:00N 56°05' W 141°22'1 0.9 1014.4 5.8
2018-Feb-13 02:00N 56°04' W 141°23'1 0.9 1015.1 5.8
2018-Feb-13 01:00N 56°04' W 141°24'0 0.3 1015.8 5.8
2018-Feb-13 00:00N 56°04' W 141°25'1 0.3 1016.6 5.8
2018-Feb-12 22:00N 56°03' W 141°25'1 0.7 1017.9 5.8
2018-Feb-12 21:00N 56°03' W 141°26'0 0.3 1018.3 5.7
2018-Feb-12 20:00N 56°03' W 141°26'2 1.7 1018.4 5.7
2018-Feb-12 19:00N 56°03' W 141°29'0 0.3 1018.5 5.7
2018-Feb-12 18:00N 56°03' W 141°29'1 1.2 1019.0 5.7
2018-Feb-12 17:00N 56°02' W 141°31'1 1.2 1019.3 5.7
2018-Feb-12 16:00N 56°01' W 141°32'1 0.9 1019.8 5.7
2018-Feb-12 15:00N 56°01' W 141°33'2 1.8 1021.0 5.7
2018-Feb-12 14:00N 55°59' W 141°33'2 2.4 1022.6 5.7
2018-Feb-12 13:00N 55°56' W 141°34'2 2.4 1023.9 5.7
2018-Feb-12 12:00N 55°59' W 141°33'2 2.4 1025.4 5.8
2018-Feb-12 11:00N 55°56' W 141°34'1 0.2 1026.1 5.8
2018-Feb-12 07:00N 55°57' W 141°33'0 0.3 1028.5 5.8
2018-Feb-12 06:00N 55°57' W 141°32'1 0.7 1028.7 5.8
2018-Feb-12 05:00N 55°57' W 141°34'1 0.7 1028.8 5.8
2018-Feb-12 04:00N 55°58' W 141°33'1 0.7 1029.0 5.8
2018-Feb-12 03:00N 55°58' W 141°34'1 1.0 1029.4 5.8
2018-Feb-12 02:00N 55°58' W 141°36'0 0.3 1029.1 5.8
2018-Feb-12 01:00N 55°58' W 141°37'0 0.3 1029.6 5.8
2018-Feb-12 00:00N 55°58' W 141°37'1 0.7 1028.8 5.8
2018-Feb-11 23:00N 55°57' W 141°38'1 1.2 1028.5 5.8
2018-Feb-11 22:00N 55°58' W 141°37'1 0.6 1027.8 5.8
2018-Feb-11 21:00N 55°58' W 141°37'1 0.7 1027.9 5.8
2018-Feb-11 20:00N 55°58' W 141°37'0 0.0 1027.5 5.8
2018-Feb-11 19:00N 55°58' W 141°37'1 0.6 1026.6 5.8
2018-Feb-11 18:00N 55°59' W 141°37'1 1.2 1025.9 5.8
2018-Feb-11 17:00N 56°00' W 141°37'1 0.7 1025.0 5.8
2018-Feb-11 16:00N 56°00' W 141°38'0 0.3 1024.1 5.8
2018-Feb-11 15:00N 56°00' W 141°37'0 0.0 1023.7 5.8
2018-Feb-11 14:00N 56°00' W 141°37'1 0.6 1023.3 5.8
2018-Feb-11 13:00N 55°59' W 141°37'0 0.0 1023.1 5.8
2018-Feb-11 12:00N 55°59' W 141°37'0 0.0 1022.9 5.8
2018-Feb-11 11:00N 55°59' W 141°37'4 0.9 1022.1 5.8
2018-Feb-11 07:00N 55°57' W 141°32'1 1.0 1018.9 5.8
2018-Feb-11 06:00N 55°57' W 141°31'1 0.7 1018.4 5.8
2018-Feb-11 05:00N 55°56' W 141°31'1 0.7 1017.8 5.8
2018-Feb-11 04:00N 55°56' W 141°30'1 0.6 1017.3 5.8
2018-Feb-11 03:00N 55°56' W 141°30'2 1.6 1016.6 5.8
2018-Feb-11 02:00N 55°55' W 141°28'0 0.0 1016.1 5.8
2018-Feb-11 01:00N 55°55' W 141°28'2 1.8 1015.6 5.8
2018-Feb-11 00:00N 55°53' W 141°26'2 1.1 1015.6 5.8
2018-Feb-10 22:00N 55°53' W 141°22'2 2.1 1017.4 5.8
2018-Feb-10 21:00N 55°52' W 141°19'0 0.0 1018.0 5.8
2018-Feb-10 20:00N 55°52' W 141°19'   1018.9 5.8

Dump ship's entire track history